createdAt,value
2019-03-16T00:00:15.596Z,99.99
2019-03-16T00:01:00.380Z,99.99
2019-03-16T00:04:38.136Z,99.99
2019-03-16T00:05:34.047Z,99.99
2019-03-16T00:08:31.223Z,99.99
2019-03-16T00:09:13.615Z,99.99
2019-03-16T00:09:55.882Z,99.99
2019-03-16T00:10:38.578Z,99.99
2019-03-16T00:11:23.936Z,99.99
2019-03-16T00:12:06.507Z,99.99
2019-03-16T00:12:55.797Z,99.99
2019-03-16T00:13:36.111Z,99.99
2019-03-16T00:14:17.631Z,99.99
2019-03-16T00:14:57.979Z,99.99
2019-03-16T00:15:38.481Z,99.99
2019-03-16T00:16:18.956Z,99.99
2019-03-16T00:16:59.442Z,99.99
2019-03-16T00:17:41.783Z,99.99
2019-03-16T00:18:22.227Z,99.99
2019-03-16T00:19:04.462Z,99.99
2019-03-16T00:19:45.359Z,99.99
2019-03-16T00:20:29.831Z,99.99
2019-03-16T00:21:11.191Z,99.99
2019-03-16T00:21:51.543Z,99.99
2019-03-16T00:22:33.811Z,99.99
2019-03-16T00:23:15.799Z,99.99
2019-03-16T00:24:00.026Z,99.99
2019-03-16T00:24:40.407Z,99.99
2019-03-16T00:25:22.663Z,99.99
2019-03-16T00:26:03.017Z,99.99
2019-03-16T00:26:43.346Z,99.99
2019-03-16T00:27:23.661Z,99.99
2019-03-16T00:28:04.036Z,99.99
2019-03-16T00:28:45.156Z,99.99
2019-03-16T00:29:25.485Z,99.99
2019-03-16T00:30:06.309Z,99.99
2019-03-16T00:30:46.703Z,99.99
2019-03-16T00:31:27.074Z,99.99
2019-03-16T00:32:13.107Z,99.99
2019-03-16T00:32:48.927Z,99.99
2019-03-16T00:33:29.369Z,99.99
2019-03-16T00:34:11.333Z,99.99
2019-03-16T00:34:52.655Z,99.99
2019-03-16T00:35:33.047Z,99.99
2019-03-16T00:36:13.466Z,99.99
2019-03-16T00:36:54.117Z,99.99
2019-03-16T00:37:34.432Z,99.99
2019-03-16T00:38:15.166Z,99.99
2019-03-16T00:38:56.030Z,99.99
2019-03-16T00:39:36.516Z,99.99
2019-03-16T00:40:19.653Z,99.99
2019-03-16T00:41:16.145Z,99.99
2019-03-16T00:41:57.513Z,99.99
2019-03-16T00:42:39.667Z,99.99
2019-03-16T00:43:21.688Z,99.99
2019-03-16T00:44:02.123Z,99.99
2019-03-16T00:44:44.521Z,99.99
2019-03-16T00:45:25.880Z,99.99
2019-03-16T00:46:10.883Z,99.99
2019-03-16T00:46:52.265Z,99.99
2019-03-16T00:47:35.066Z,99.99
2019-03-16T00:48:17.421Z,99.99
2019-03-16T00:49:06.606Z,99.99
2019-03-16T00:51:33.727Z,99.99
2019-03-16T00:52:23.181Z,99.99
2019-03-16T00:53:03.249Z,99.99
2019-03-16T00:53:43.616Z,99.99
2019-03-16T00:54:24.502Z,99.99
2019-03-16T00:55:06.751Z,99.99
2019-03-16T00:55:47.079Z,99.99
2019-03-16T00:56:27.881Z,99.99
2019-03-16T00:57:08.967Z,99.99
2019-03-16T00:57:49.844Z,99.99
2019-03-16T00:58:35.026Z,99.99
2019-03-16T00:59:18.046Z,99.99
2019-03-16T00:59:59.439Z,99.99
2019-03-16T01:00:39.760Z,99.99
2019-03-16T01:01:20.062Z,99.99
2019-03-16T01:02:01.863Z,99.99
2019-03-16T01:02:42.129Z,99.99
2019-03-16T01:03:22.584Z,99.99
2019-03-16T01:04:04.493Z,99.99
2019-03-16T01:04:45.163Z,99.99
2019-03-16T01:05:25.474Z,99.99
2019-03-16T01:06:07.596Z,99.99
2019-03-16T01:06:48.081Z,99.99
2019-03-16T01:07:28.758Z,99.99
2019-03-16T01:08:11.275Z,99.99
2019-03-16T01:12:20.551Z,99.99
2019-03-16T01:13:06.288Z,99.99
2019-03-16T01:19:55.034Z,99.99
2019-03-16T01:21:38.278Z,99.99
2019-03-16T01:22:24.660Z,99.99
2019-03-16T01:23:06.876Z,99.99
2019-03-16T01:24:06.677Z,99.99
2019-03-16T01:24:47.794Z,99.99
2019-03-16T01:25:27.838Z,99.99
2019-03-16T01:26:08.571Z,99.99
2019-03-16T01:26:51.145Z,99.99
2019-03-16T01:27:32.098Z,99.99
2019-03-16T01:28:13.697Z,99.99
2019-03-16T01:28:57.857Z,99.99
2019-03-16T01:29:40.649Z,99.99
2019-03-16T01:30:23.742Z,99.99
2019-03-16T01:31:04.225Z,99.99
2019-03-16T01:31:46.110Z,99.99
2019-03-16T01:32:39.660Z,99.99
2019-03-16T01:33:08.510Z,99.99
2019-03-16T01:36:49.800Z,99.99
2019-03-16T01:37:34.500Z,99.99
2019-03-16T01:38:14.839Z,99.99
2019-03-16T01:38:56.846Z,99.99
2019-03-16T01:39:37.171Z,99.99
2019-03-16T01:40:17.472Z,99.99
2019-03-16T01:46:18.817Z,99.99
2019-03-16T01:47:02.715Z,99.99
2019-03-16T01:47:43.664Z,99.99
2019-03-16T01:48:24.471Z,99.99
2019-03-16T01:49:05.974Z,99.99
2019-03-16T01:49:47.656Z,99.99
2019-03-16T01:50:28.802Z,99.99
2019-03-16T01:51:09.588Z,99.99
2019-03-16T01:51:51.435Z,99.99
2019-03-16T01:52:32.779Z,99.99
2019-03-16T01:57:20.376Z,99.99
2019-03-16T01:58:11.973Z,99.99
2019-03-16T02:00:14.033Z,99.99
2019-03-16T02:01:08.712Z,99.99
2019-03-16T02:03:18.042Z,99.99
2019-03-16T02:04:08.790Z,99.99
2019-03-16T02:04:52.080Z,99.99
2019-03-16T02:05:34.942Z,99.99
2019-03-16T02:06:16.279Z,99.99
2019-03-16T02:06:57.935Z,99.99
2019-03-16T02:07:38.718Z,99.99
2019-03-16T02:08:19.368Z,99.99
2019-03-16T02:09:00.702Z,99.99
2019-03-16T02:12:48.946Z,99.99
2019-03-16T02:13:35.722Z,99.99
2019-03-16T02:18:16.747Z,99.99
2019-03-16T02:19:06.341Z,99.99
2019-03-16T02:27:02.711Z,99.99
2019-03-16T02:34:09.473Z,99.99
2019-03-16T02:36:12.674Z,99.99
2019-03-16T02:40:47.451Z,99.99
2019-03-16T02:51:18.315Z,99.99
2019-03-16T02:51:57.333Z,99.99
2019-03-16T02:52:43.488Z,99.99
2019-03-16T02:53:25.618Z,99.99
2019-03-16T02:54:06.056Z,99.99
2019-03-16T02:54:48.556Z,99.99
2019-03-16T02:55:28.874Z,99.99
2019-03-16T02:56:09.598Z,99.99
2019-03-16T02:56:49.871Z,99.99
2019-03-16T02:57:30.334Z,99.99
2019-03-16T02:58:10.646Z,99.99
2019-03-16T02:58:51.156Z,99.99
2019-03-16T02:59:31.853Z,99.99
2019-03-16T03:00:12.301Z,99.99
2019-03-16T03:00:53.136Z,99.99
2019-03-16T03:01:33.511Z,99.99
2019-03-16T03:02:13.888Z,99.99
2019-03-16T03:02:54.259Z,99.99
2019-03-16T03:03:34.959Z,99.99
2019-03-16T03:04:15.166Z,99.99
2019-03-16T03:04:55.770Z,99.99
2019-03-16T03:05:36.132Z,99.99
2019-03-16T03:06:16.550Z,99.99
2019-03-16T03:06:57.227Z,99.99
2019-03-16T03:07:37.997Z,99.99
2019-03-16T03:08:18.438Z,99.99
2019-03-16T03:08:58.730Z,99.99
2019-03-16T03:09:39.162Z,99.99
2019-03-16T03:10:19.511Z,99.99
2019-03-16T03:10:59.851Z,99.99
2019-03-16T03:11:40.830Z,99.99
2019-03-16T03:12:20.734Z,99.99
2019-03-16T03:13:01.080Z,99.99
2019-03-16T03:13:41.469Z,99.99
2019-03-16T03:14:22.159Z,99.99
2019-03-16T03:15:02.405Z,99.99
2019-03-16T03:15:42.877Z,99.99
2019-03-16T03:16:23.172Z,99.99
2019-03-16T03:17:03.803Z,99.99
2019-03-16T03:17:44.127Z,99.99
2019-03-16T03:18:24.568Z,99.99
2019-03-16T03:19:05.682Z,99.99
2019-03-16T03:19:46.312Z,99.99
2019-03-16T03:20:26.890Z,99.99
2019-03-16T03:21:09.257Z,99.99
2019-03-16T03:21:51.034Z,99.99
2019-03-16T03:22:31.519Z,99.99
2019-03-16T03:23:11.804Z,99.99
2019-03-16T03:23:52.232Z,99.99
2019-03-16T03:24:33.214Z,99.99
2019-03-16T03:25:15.565Z,99.99
2019-03-16T03:25:56.359Z,99.99
2019-03-16T03:26:36.602Z,99.99
2019-03-16T03:27:17.410Z,99.99
2019-03-16T03:28:01.242Z,99.99
2019-03-16T03:28:45.748Z,99.99
2019-03-16T03:29:28.064Z,99.99
2019-03-16T03:30:07.744Z,99.99
2019-03-16T03:30:48.099Z,99.99
2019-03-16T03:31:28.779Z,99.99
2019-03-16T03:32:09.083Z,99.99
2019-03-16T03:32:49.609Z,99.99
2019-03-16T03:33:56.832Z,99.99
2019-03-16T03:34:11.996Z,99.99
2019-03-16T03:34:52.392Z,99.99
2019-03-16T03:35:33.193Z,99.99
2019-03-16T03:36:15.621Z,99.99
2019-03-16T03:36:56.086Z,99.99
2019-03-16T03:37:37.069Z,99.99
2019-03-16T03:38:17.521Z,99.99
2019-03-16T03:39:05.220Z,99.99
2019-03-16T03:39:45.811Z,99.99
2019-03-16T03:40:26.167Z,99.99
2019-03-16T03:41:06.552Z,99.99
2019-03-16T03:41:47.203Z,99.99
2019-03-16T03:42:27.601Z,99.99
2019-03-16T03:43:08.255Z,99.99
2019-03-16T03:43:48.644Z,99.99
2019-03-16T03:44:29.272Z,99.99
2019-03-16T03:45:09.290Z,99.99
2019-03-16T03:45:49.917Z,99.99
2019-03-16T03:46:32.437Z,99.99
2019-03-16T03:47:11.609Z,99.99
2019-03-16T03:47:53.056Z,99.99
2019-03-16T03:48:33.234Z,99.99
2019-03-16T03:49:13.539Z,99.99
2019-03-16T03:49:53.951Z,99.99
2019-03-16T03:50:34.313Z,99.99
2019-03-16T03:51:14.743Z,99.99
2019-03-16T03:51:55.367Z,99.99
2019-03-16T03:52:36.007Z,99.99
2019-03-16T03:53:16.452Z,99.99
2019-03-16T03:53:56.757Z,99.99
2019-03-16T03:54:37.243Z,99.99
2019-03-16T03:55:17.576Z,99.99
2019-03-16T03:55:58.032Z,99.99
2019-03-16T03:56:38.713Z,99.99
2019-03-16T03:57:18.795Z,99.99
2019-03-16T03:57:59.135Z,99.99
2019-03-16T03:58:39.531Z,99.99
2019-03-16T03:59:19.944Z,99.99
2019-03-16T04:00:00.618Z,99.99
2019-03-16T04:00:41.041Z,99.99
2019-03-16T04:01:21.477Z,99.99
2019-03-16T04:02:01.799Z,99.99
2019-03-16T04:02:42.254Z,99.99
2019-03-16T04:03:22.630Z,99.99
2019-03-16T04:04:14.698Z,99.99
2019-03-16T04:04:43.528Z,99.99
2019-03-16T04:05:23.951Z,99.99
2019-03-16T04:06:04.570Z,99.99
2019-03-16T04:06:46.159Z,99.99
2019-03-16T04:07:26.548Z,99.99
2019-03-16T04:08:06.903Z,99.99
2019-03-16T04:08:47.549Z,99.99
2019-03-16T04:09:27.835Z,99.99
2019-03-16T04:10:08.253Z,99.99
2019-03-16T04:10:48.776Z,99.99
2019-03-16T04:11:29.144Z,99.99
2019-03-16T04:12:09.582Z,99.99
2019-03-16T04:12:50.101Z,99.99
2019-03-16T04:13:30.547Z,99.99
2019-03-16T04:14:10.905Z,99.99
2019-03-16T04:14:52.278Z,99.99
2019-03-16T04:15:33.655Z,99.99
2019-03-16T04:16:14.023Z,99.99
2019-03-16T04:16:54.545Z,99.99
2019-03-16T04:17:35.774Z,99.99
2019-03-16T04:23:08.542Z,99.99
2019-03-16T04:24:00.967Z,99.99
2019-03-16T05:06:48.783Z,99.99
2019-03-16T05:07:36.365Z,99.99
2019-03-16T05:08:18.397Z,99.99
2019-03-16T05:09:00.346Z,99.99
2019-03-16T05:16:34.389Z,99.99
2019-03-16T05:17:15.095Z,99.99
2019-03-16T05:17:55.463Z,99.99
2019-03-16T05:18:35.986Z,99.99
2019-03-16T05:19:16.248Z,99.99
2019-03-16T05:19:56.657Z,99.99
2019-03-16T05:20:37.007Z,99.99
2019-03-16T05:21:17.384Z,99.99
2019-03-16T05:21:57.769Z,99.99
2019-03-16T05:22:38.150Z,99.99
2019-03-16T05:23:18.639Z,99.99
2019-03-16T05:23:58.987Z,99.99
2019-03-16T05:24:39.334Z,99.99
2019-03-16T05:25:19.704Z,99.99
2019-03-16T05:26:00.130Z,99.99
2019-03-16T05:26:40.476Z,99.99
2019-03-16T05:27:20.858Z,99.99
2019-03-16T05:28:01.293Z,99.99
2019-03-16T05:28:41.629Z,99.99
2019-03-16T05:29:22.045Z,99.99
2019-03-16T05:30:02.504Z,99.99
2019-03-16T05:30:42.830Z,99.99
2019-03-16T05:31:23.180Z,99.99
2019-03-16T05:32:03.542Z,99.99
2019-03-16T05:32:43.911Z,99.99
2019-03-16T05:33:24.356Z,99.99
2019-03-16T05:34:04.778Z,99.99
2019-03-16T05:34:55.807Z,99.99
2019-03-16T05:35:25.570Z,99.99
2019-03-16T05:36:05.914Z,99.99
2019-03-16T05:36:46.359Z,99.99
2019-03-16T05:37:26.776Z,99.99
2019-03-16T05:38:07.182Z,99.99
2019-03-16T05:38:47.539Z,99.99
2019-03-16T05:39:27.911Z,99.99
2019-03-16T05:40:09.093Z,99.99
2019-03-16T05:40:49.477Z,99.99
2019-03-16T05:41:29.866Z,99.99
2019-03-16T05:42:10.273Z,99.99
2019-03-16T05:42:50.676Z,99.99
2019-03-16T05:43:31.051Z,99.99
2019-03-16T05:44:11.414Z,99.99
2019-03-16T05:44:51.781Z,99.99
2019-03-16T05:45:32.201Z,99.99
2019-03-16T05:46:12.597Z,99.99
2019-03-16T05:46:52.964Z,99.99
2019-03-16T05:47:33.323Z,99.99
2019-03-16T05:48:13.757Z,99.99
2019-03-16T05:48:54.124Z,99.99
2019-03-16T05:49:34.457Z,99.99
2019-03-16T05:50:14.873Z,99.99
2019-03-16T05:50:57.426Z,99.99
2019-03-16T05:51:35.616Z,99.99
2019-03-16T05:52:16.047Z,99.99
2019-03-16T05:52:56.393Z,99.99
2019-03-16T05:53:36.750Z,99.99
2019-03-16T05:54:17.171Z,99.99
2019-03-16T05:54:57.522Z,99.99
2019-03-16T05:55:37.955Z,99.99
2019-03-16T05:56:18.374Z,99.99
2019-03-16T05:56:58.799Z,99.99
2019-03-16T05:57:39.197Z,99.99
2019-03-16T05:58:19.590Z,99.99
2019-03-16T05:59:00.018Z,99.99
2019-03-16T05:59:40.363Z,99.99
2019-03-16T06:00:20.780Z,99.99
2019-03-16T06:01:01.669Z,99.99
2019-03-16T06:01:42.074Z,99.99
2019-03-16T06:02:22.413Z,99.99
2019-03-16T06:03:02.806Z,99.99
2019-03-16T06:03:43.188Z,99.99
2019-03-16T06:04:23.594Z,99.99
2019-03-16T06:05:10.171Z,99.99
2019-03-16T06:05:44.399Z,99.99
2019-03-16T06:06:27.291Z,99.99
2019-03-16T06:07:05.123Z,99.99
2019-03-16T06:07:45.544Z,99.99
2019-03-16T06:08:26.170Z,99.99
2019-03-16T06:09:06.511Z,99.99
2019-03-16T06:09:46.936Z,99.99
2019-03-16T06:10:27.279Z,99.99
2019-03-16T06:11:07.701Z,99.99
2019-03-16T06:11:48.092Z,99.99
2019-03-16T06:12:28.571Z,99.99
2019-03-16T06:13:08.944Z,99.99
2019-03-16T06:13:49.371Z,99.99
2019-03-16T06:14:30.469Z,99.99
2019-03-16T06:15:10.762Z,99.99
2019-03-16T06:15:55.325Z,99.99
2019-03-16T06:16:35.633Z,99.99
2019-03-16T06:17:16.030Z,99.99
2019-03-16T06:17:56.413Z,99.99
2019-03-16T06:18:36.911Z,99.99
2019-03-16T06:19:17.214Z,99.99
2019-03-16T06:19:57.617Z,99.99
2019-03-16T06:20:38.281Z,99.99
2019-03-16T06:21:18.752Z,99.99
2019-03-16T06:21:59.225Z,99.99
2019-03-16T06:22:41.742Z,99.99
2019-03-16T06:23:24.987Z,99.99
2019-03-16T06:24:05.333Z,99.99
2019-03-16T06:24:46.437Z,99.99
2019-03-16T06:25:29.509Z,99.99
2019-03-16T06:26:13.934Z,99.99
2019-03-16T06:26:54.661Z,99.99
2019-03-16T06:27:35.757Z,99.99
2019-03-16T06:28:19.415Z,99.99
2019-03-16T06:28:59.982Z,99.99
2019-03-16T06:29:40.380Z,99.99
2019-03-16T06:30:21.994Z,99.99
2019-03-16T06:31:03.948Z,99.99
2019-03-16T06:31:46.232Z,99.99
2019-03-16T06:32:26.589Z,99.99
2019-03-16T06:33:07.287Z,99.99
2019-03-16T06:33:47.565Z,99.99
2019-03-16T06:34:28.994Z,99.99
2019-03-16T06:35:23.337Z,99.99
2019-03-16T06:35:51.697Z,99.99
2019-03-16T06:36:33.124Z,99.99
2019-03-16T06:37:13.645Z,99.99
2019-03-16T06:37:54.764Z,99.99
2019-03-16T06:38:35.951Z,99.99
2019-03-16T06:39:16.337Z,99.99
2019-03-16T06:39:57.429Z,99.99
2019-03-16T06:40:37.357Z,99.99
2019-03-16T06:41:18.525Z,99.99
2019-03-16T06:41:59.000Z,99.99
2019-03-16T06:42:39.675Z,99.99
2019-03-16T06:43:30.365Z,99.99
2019-03-16T06:44:10.786Z,99.99
2019-03-16T06:44:52.799Z,99.99
2019-03-16T06:45:33.191Z,99.99
2019-03-16T06:46:13.649Z,99.99
2019-03-16T06:46:54.037Z,99.99
2019-03-16T06:47:36.252Z,99.99
2019-03-16T06:48:16.699Z,99.99
2019-03-16T06:48:57.105Z,99.99
2019-03-16T06:49:37.569Z,99.99
2019-03-16T06:50:19.900Z,99.99
2019-03-16T06:51:02.007Z,99.99
2019-03-16T06:51:43.057Z,99.99
2019-03-16T06:52:23.038Z,99.99
2019-03-16T06:53:03.419Z,99.99
2019-03-16T06:53:45.684Z,99.99
2019-03-16T06:54:26.875Z,99.99
2019-03-16T06:55:07.219Z,99.99
2019-03-16T06:55:47.621Z,99.99
2019-03-16T06:56:28.264Z,99.99
2019-03-16T06:57:08.891Z,99.99
2019-03-16T06:57:49.335Z,99.99
2019-03-16T06:58:29.745Z,99.99
2019-03-16T06:59:10.792Z,99.99
2019-03-16T06:59:51.020Z,99.99
2019-03-16T07:00:31.560Z,99.99
2019-03-16T07:01:11.873Z,99.99
2019-03-16T07:01:52.259Z,99.99
2019-03-16T07:02:32.711Z,99.99
2019-03-16T07:03:14.925Z,99.99
2019-03-16T07:03:56.943Z,99.99
2019-03-16T07:04:37.459Z,99.99
2019-03-16T07:05:20.585Z,99.99
2019-03-16T07:05:58.118Z,99.99
2019-03-16T07:06:39.413Z,99.99
2019-03-16T07:07:20.097Z,99.99
2019-03-16T07:08:00.237Z,99.99
2019-03-16T07:08:41.140Z,99.99
2019-03-16T07:09:21.385Z,99.99
2019-03-16T07:10:03.838Z,99.99
2019-03-16T07:10:44.491Z,99.99
2019-03-16T07:11:26.556Z,99.99
2019-03-16T07:12:15.722Z,99.99
2019-03-16T07:12:56.122Z,99.99
2019-03-16T07:13:40.199Z,99.99
2019-03-16T07:14:21.106Z,99.99
2019-03-16T07:15:02.057Z,99.99
2019-03-16T07:15:42.575Z,99.99
2019-03-16T07:16:26.630Z,99.99
2019-03-16T07:17:07.006Z,99.99
2019-03-16T07:17:47.567Z,99.99
2019-03-16T07:18:29.807Z,99.99
2019-03-16T07:19:12.150Z,99.99
2019-03-16T07:19:52.418Z,99.99
2019-03-16T07:20:32.796Z,99.99
2019-03-16T07:21:13.544Z,99.99
2019-03-16T07:21:54.756Z,99.99
2019-03-16T07:22:35.604Z,99.99
2019-03-16T07:23:16.254Z,99.99
2019-03-16T07:23:58.289Z,99.99
2019-03-16T07:24:38.693Z,99.99
2019-03-16T07:25:19.315Z,99.99
2019-03-16T07:26:14.005Z,99.99
2019-03-16T07:26:44.772Z,99.99
2019-03-16T07:27:27.368Z,99.99
2019-03-16T07:28:07.867Z,99.99
2019-03-16T07:28:49.747Z,99.99
2019-03-16T07:29:32.114Z,99.99
2019-03-16T07:30:15.794Z,99.99
2019-03-16T07:30:55.961Z,99.99
2019-03-16T07:31:36.097Z,99.99
2019-03-16T07:32:20.764Z,99.99
2019-03-16T07:33:02.184Z,99.99
2019-03-16T07:33:42.584Z,99.99
2019-03-16T07:34:23.003Z,99.99
2019-03-16T07:35:04.801Z,99.99
2019-03-16T07:35:45.112Z,99.99
2019-03-16T07:36:26.566Z,99.99
2019-03-16T07:37:10.740Z,99.99
2019-03-16T07:37:51.398Z,99.99
2019-03-16T07:38:32.248Z,99.99
2019-03-16T07:39:12.257Z,99.99
2019-03-16T07:39:52.708Z,99.99
2019-03-16T07:40:35.077Z,99.99
2019-03-16T07:41:16.359Z,99.99
2019-03-16T07:42:00.528Z,99.99
2019-03-16T07:42:42.494Z,99.99
2019-03-16T07:43:23.169Z,99.99
2019-03-16T07:44:05.158Z,99.99
2019-03-16T07:44:47.287Z,99.99
2019-03-16T07:45:27.711Z,99.99
2019-03-16T07:46:08.029Z,99.99
2019-03-16T07:46:48.521Z,99.99
2019-03-16T07:47:30.508Z,99.99
2019-03-16T07:48:11.149Z,99.99
2019-03-16T07:48:51.489Z,99.99
2019-03-16T07:49:32.720Z,99.99
2019-03-16T07:50:18.750Z,99.99
2019-03-16T07:50:59.369Z,99.99
2019-03-16T07:51:40.027Z,99.99
2019-03-16T07:52:20.361Z,99.99
2019-03-16T07:53:02.540Z,99.99
2019-03-16T07:53:43.965Z,99.99
2019-03-16T07:54:24.506Z,99.99
2019-03-16T07:55:04.899Z,99.99
2019-03-16T07:55:45.146Z,99.99
2019-03-16T07:56:29.455Z,99.99
2019-03-16T07:57:11.702Z,99.99
2019-03-16T07:57:52.139Z,99.99
2019-03-16T07:58:32.500Z,99.99
2019-03-16T07:59:12.890Z,99.99
2019-03-16T07:59:53.255Z,99.99
2019-03-16T08:00:35.274Z,99.99
2019-03-16T08:01:16.683Z,99.99
2019-03-16T08:01:57.275Z,99.99
2019-03-16T08:02:37.685Z,99.99
2019-03-16T08:03:18.064Z,99.99
2019-03-16T08:03:58.446Z,99.99
2019-03-16T08:04:38.900Z,99.99
2019-03-16T08:05:19.526Z,99.99
2019-03-16T08:06:00.030Z,99.99
2019-03-16T08:06:40.962Z,99.99
2019-03-16T08:07:21.361Z,99.99
2019-03-16T08:08:03.793Z,99.99
2019-03-16T08:08:46.265Z,99.99
2019-03-16T08:09:27.742Z,99.99
2019-03-16T08:10:09.115Z,99.99
2019-03-16T08:10:50.794Z,99.99
2019-03-16T08:11:33.048Z,99.99
2019-03-16T08:12:14.844Z,99.99
2019-03-16T08:12:56.191Z,99.99
2019-03-16T08:13:37.616Z,99.99
2019-03-16T08:14:19.089Z,99.99
2019-03-16T08:15:00.112Z,99.99
2019-03-16T08:15:40.598Z,99.99
2019-03-16T08:16:22.848Z,99.99
2019-03-16T08:17:05.995Z,99.99
2019-03-16T08:17:46.287Z,99.99
2019-03-16T08:18:26.704Z,99.99
2019-03-16T08:19:07.106Z,99.99
2019-03-16T08:19:49.670Z,99.99
2019-03-16T08:20:31.409Z,99.99
2019-03-16T08:21:10.162Z,99.99
2019-03-16T08:21:53.345Z,99.99
2019-03-16T08:22:34.188Z,99.99
2019-03-16T08:23:16.342Z,99.99
2019-03-16T08:23:58.428Z,99.99
2019-03-16T08:24:40.545Z,99.99
2019-03-16T08:25:22.285Z,99.99
2019-03-16T08:26:06.593Z,99.99
2019-03-16T08:26:49.523Z,99.99
2019-03-16T08:27:29.366Z,99.99
2019-03-16T08:28:09.610Z,99.99
2019-03-16T08:28:50.030Z,99.99
2019-03-16T08:29:30.593Z,99.99
2019-03-16T08:30:12.242Z,99.99
2019-03-16T08:30:56.514Z,99.99
2019-03-16T08:31:34.906Z,99.99
2019-03-16T08:32:15.281Z,99.99
2019-03-16T08:32:56.682Z,99.99
2019-03-16T08:33:38.216Z,99.99
2019-03-16T08:34:20.599Z,99.99
2019-03-16T08:35:02.999Z,99.99
2019-03-16T08:35:43.237Z,99.99
2019-03-16T08:36:26.145Z,99.99
2019-03-16T08:37:06.439Z,99.99
2019-03-16T08:37:47.843Z,99.99
2019-03-16T08:38:31.806Z,99.99
2019-03-16T08:39:13.794Z,99.99
2019-03-16T08:39:54.188Z,99.99
2019-03-16T08:40:36.183Z,99.99
2019-03-16T08:41:17.149Z,99.99
2019-03-16T08:42:03.729Z,99.99
2019-03-16T08:42:44.343Z,99.99
2019-03-16T08:43:24.673Z,99.99
2019-03-16T08:44:07.054Z,99.99
2019-03-16T08:44:48.085Z,99.99
2019-03-16T08:45:27.890Z,99.99
2019-03-16T08:46:08.242Z,99.99
2019-03-16T08:46:49.604Z,99.99
2019-03-16T08:47:31.427Z,99.99
2019-03-16T08:48:22.089Z,99.99
2019-03-16T08:48:50.891Z,99.99
2019-03-16T08:49:31.455Z,99.99
2019-03-16T08:50:13.652Z,99.99
2019-03-16T08:50:54.363Z,99.99
2019-03-16T08:51:34.830Z,99.99
2019-03-16T08:52:15.989Z,99.99
2019-03-16T08:52:56.437Z,99.99
2019-03-16T08:53:37.159Z,99.99
2019-03-16T08:54:17.532Z,99.99
2019-03-16T08:55:02.035Z,99.99
2019-03-16T08:55:42.520Z,99.99
2019-03-16T08:56:24.687Z,99.99
2019-03-16T08:57:05.176Z,99.99
2019-03-16T08:57:45.476Z,99.99
2019-03-16T08:58:27.814Z,99.99
2019-03-16T08:59:08.565Z,99.99
2019-03-16T08:59:49.058Z,99.99
2019-03-16T09:00:29.399Z,99.99
2019-03-16T09:01:11.613Z,99.99
2019-03-16T09:01:52.021Z,99.99
2019-03-16T09:02:32.396Z,99.99
2019-03-16T09:03:12.871Z,99.99
2019-03-16T09:03:53.342Z,99.99
2019-03-16T09:04:34.647Z,99.99
2019-03-16T09:05:15.662Z,99.99
2019-03-16T09:05:57.756Z,99.99
2019-03-16T09:06:38.146Z,99.99
2019-03-16T09:07:18.638Z,99.99
2019-03-16T09:07:59.177Z,99.99
2019-03-16T09:08:40.065Z,99.99
2019-03-16T09:09:21.457Z,99.99
2019-03-16T09:10:04.822Z,99.99
2019-03-16T09:10:46.531Z,99.99
2019-03-16T09:11:29.768Z,99.99
2019-03-16T09:15:16.277Z,99.99
2019-03-16T09:15:56.968Z,99.99
2019-03-16T09:16:37.557Z,99.99
2019-03-16T09:17:19.115Z,99.99
2019-03-16T09:17:59.450Z,99.99
2019-03-16T09:18:40.282Z,99.99
2019-03-16T09:19:20.901Z,99.99
2019-03-16T09:20:02.317Z,99.99
2019-03-16T09:20:42.768Z,99.99
2019-03-16T09:21:23.170Z,99.99
2019-03-16T09:22:03.654Z,99.99
2019-03-16T09:22:43.999Z,99.99
2019-03-16T09:23:25.864Z,99.99
2019-03-16T09:24:06.284Z,99.99
2019-03-16T09:24:46.770Z,99.99
2019-03-16T09:25:29.210Z,99.99
2019-03-16T09:26:09.671Z,99.99
2019-03-16T09:26:50.823Z,99.99
2019-03-16T09:27:31.729Z,99.99
2019-03-16T09:28:18.362Z,99.99
2019-03-16T09:28:59.794Z,99.99
2019-03-16T09:29:36.307Z,99.99
2019-03-16T09:30:17.899Z,99.99
2019-03-16T09:31:00.105Z,99.99
2019-03-16T09:31:42.193Z,99.99
2019-03-16T09:32:23.558Z,99.99
2019-03-16T09:33:08.831Z,99.99
2019-03-16T09:33:49.211Z,99.99
2019-03-16T09:39:20.736Z,99.99
2019-03-16T09:40:05.405Z,99.99
2019-03-16T09:40:46.295Z,99.99
2019-03-16T09:41:26.506Z,99.99
2019-03-16T09:42:10.706Z,99.99
2019-03-16T09:42:52.794Z,99.99
2019-03-16T09:43:33.233Z,99.99
2019-03-16T09:44:15.934Z,99.99
2019-03-16T09:44:56.930Z,99.99
2019-03-16T09:45:37.230Z,99.99
2019-03-16T09:46:17.701Z,99.99
2019-03-16T09:46:58.250Z,99.99
2019-03-16T09:47:38.735Z,99.99
2019-03-16T09:48:19.126Z,99.99
2019-03-16T09:49:01.070Z,99.99
2019-03-16T09:49:42.566Z,99.99
2019-03-16T09:50:22.937Z,99.99
2019-03-16T09:51:03.370Z,99.99
2019-03-16T09:51:43.825Z,99.99
2019-03-16T09:52:30.376Z,99.99
2019-03-16T09:53:11.727Z,99.99
2019-03-16T09:54:01.707Z,99.99
2019-03-16T09:54:44.568Z,99.99
2019-03-16T09:55:25.077Z,99.99
2019-03-16T09:56:08.723Z,99.99
2019-03-16T09:57:01.363Z,99.99
2019-03-16T09:57:38.142Z,99.99
2019-03-16T09:58:30.389Z,99.99
2019-03-16T09:59:00.186Z,99.99
2019-03-16T09:59:41.550Z,99.99
2019-03-16T10:00:23.555Z,99.99
2019-03-16T10:01:06.310Z,99.99
2019-03-16T10:01:47.038Z,99.99
2019-03-16T10:02:29.733Z,99.99
2019-03-16T10:03:10.246Z,99.99
2019-03-16T10:03:52.761Z,99.99
2019-03-16T10:04:34.655Z,99.99
2019-03-16T10:05:15.209Z,99.99
2019-03-16T10:05:56.144Z,99.99
2019-03-16T10:06:35.971Z,99.99
2019-03-16T10:07:16.491Z,99.99
2019-03-16T10:07:56.795Z,99.09
2019-03-16T10:08:37.249Z,99.99
2019-03-16T10:09:18.747Z,99.99
2019-03-16T10:09:59.114Z,99.99
2019-03-16T10:10:39.864Z,99.99
2019-03-16T10:11:20.111Z,99.99
2019-03-16T10:12:02.354Z,99.99
2019-03-16T10:12:43.639Z,99.19
2019-03-16T10:13:24.240Z,99.09
2019-03-16T10:14:05.265Z,98.99
2019-03-16T10:14:45.681Z,96.89
2019-03-16T10:15:27.138Z,98.42
2019-03-16T10:16:09.141Z,98.23
2019-03-16T10:16:51.431Z,99.28
2019-03-16T10:17:33.976Z,98.52
2019-03-16T10:18:17.241Z,98.61
2019-03-16T10:18:58.849Z,98.71
2019-03-16T10:19:41.135Z,98.13
2019-03-16T10:20:21.651Z,98.23
2019-03-16T10:21:06.638Z,97.47
2019-03-16T10:21:47.198Z,97.85
2019-03-16T10:22:28.481Z,96.89
2019-03-16T10:23:10.803Z,98.04
2019-03-16T10:23:53.062Z,97.08
2019-03-16T10:24:33.866Z,96.7
2019-03-16T10:25:14.558Z,97.18
2019-03-16T10:25:55.548Z,96.03
2019-03-16T10:26:38.751Z,97.94
2019-03-16T10:27:21.174Z,98.13
2019-03-16T10:28:01.586Z,97.75
2019-03-16T10:28:44.099Z,98.42
2019-03-16T11:14:50.355Z,75.07
2019-03-16T11:15:35.816Z,75.54
2019-03-16T11:16:19.806Z,74.97
2019-03-16T11:17:03.144Z,75.83
2019-03-16T11:17:45.419Z,74.11
2019-03-16T11:18:25.997Z,74.97
2019-03-16T11:19:06.347Z,73.44
2019-03-16T11:19:46.966Z,74.87
2019-03-16T11:20:27.471Z,75.07
2019-03-16T11:21:09.734Z,75.54
2019-03-16T11:21:50.728Z,75.12
2019-03-16T11:22:31.568Z,76.75
2019-03-16T11:23:13.693Z,76.18
2019-03-16T11:23:54.200Z,76.94
2019-03-16T11:24:36.451Z,76.75
2019-03-16T11:32:16.690Z,80.3
2019-03-16T11:32:58.305Z,80.06
2019-03-16T11:33:38.920Z,79.68
2019-03-16T11:34:20.638Z,80.44
2019-03-16T11:35:02.762Z,79.54
2019-03-16T11:35:43.179Z,80.3
2019-03-16T11:36:23.528Z,81.65
2019-03-16T11:37:05.741Z,80.92
2019-03-16T11:37:47.067Z,80.98
2019-03-16T11:38:27.625Z,80.5
2019-03-16T11:39:08.102Z,80.02
2019-03-16T11:39:50.129Z,80.69
2019-03-16T11:40:30.635Z,80.88
2019-03-16T11:41:14.494Z,80.69
2019-03-16T11:41:55.633Z,81.07
2019-03-16T11:42:38.060Z,80.98
2019-03-16T11:43:18.312Z,80.59
2019-03-16T11:43:58.738Z,81.16
2019-03-16T11:44:42.364Z,80.79
2019-03-16T11:45:26.138Z,80.4
2019-03-16T11:46:06.503Z,80.79
2019-03-16T11:46:47.081Z,81.26
2019-03-16T11:47:27.608Z,80.73
2019-03-16T11:48:09.637Z,80.82
2019-03-16T11:48:51.150Z,80.25
2019-03-16T11:49:33.459Z,79.1
2019-03-16T11:50:16.514Z,79.68
2019-03-16T11:50:57.756Z,78.05
2019-03-16T11:51:48.207Z,79.49
2019-03-16T11:52:29.342Z,79
2019-03-16T11:53:09.934Z,78.05
2019-03-16T11:53:50.438Z,79
2019-03-16T11:54:30.747Z,79.58
2019-03-16T11:55:13.146Z,79.2
2019-03-16T11:55:54.516Z,78.91
2019-03-16T11:56:34.158Z,79.1